sensor_id;sensor_type;location;lat;lon;timestamp;P1;durP1;ratioP1;P2;durP2;ratioP2
2712;SDS011;1366;47.988;7.856;2023-03-15T05:01:24;2.93;;;2.70;;
2712;SDS011;1366;47.988;7.856;2023-03-15T05:03:52;2.97;;;2.30;;
2712;SDS011;1366;47.988;7.856;2023-03-15T05:06:18;3.73;;;2.30;;
2712;SDS011;1366;47.988;7.856;2023-03-15T05:08:44;2.77;;;2.57;;
2712;SDS011;1366;47.988;7.856;2023-03-15T05:11:11;3.53;;;3.23;;
2712;SDS011;1366;47.988;7.856;2023-03-15T05:13:37;3.20;;;2.90;;
2712;SDS011;1366;47.988;7.856;2023-03-15T05:16:03;2.93;;;2.73;;
2712;SDS011;1366;47.988;7.856;2023-03-15T05:18:29;3.43;;;3.13;;
2712;SDS011;1366;47.988;7.856;2023-03-15T05:20:55;3.10;;;2.80;;
2712;SDS011;1366;47.988;7.856;2023-03-15T05:23:22;3.43;;;3.13;;
2712;SDS011;1366;47.988;7.856;2023-03-15T05:25:51;3.40;;;3.20;;
2712;SDS011;1366;47.988;7.856;2023-03-15T05:28:21;4.70;;;3.63;;
2712;SDS011;1366;47.988;7.856;2023-03-15T05:30:47;4.17;;;3.87;;
2712;SDS011;1366;47.988;7.856;2023-03-15T05:33:13;5.47;;;4.97;;
2712;SDS011;1366;47.988;7.856;2023-03-15T05:35:41;3.43;;;3.23;;
2712;SDS011;1366;47.988;7.856;2023-03-15T05:38:08;4.10;;;3.80;;
2712;SDS011;1366;47.988;7.856;2023-03-15T05:40:38;4.40;;;4.00;;
2712;SDS011;1366;47.988;7.856;2023-03-15T05:43:04;5.40;;;4.17;;
2712;SDS011;1366;47.988;7.856;2023-03-15T05:45:30;3.73;;;3.43;;
2712;SDS011;1366;47.988;7.856;2023-03-15T05:47:56;3.60;;;3.30;;
2712;SDS011;1366;47.988;7.856;2023-03-15T05:50:22;4.20;;;3.50;;
2712;SDS011;1366;47.988;7.856;2023-03-15T05:52:49;5.10;;;3.60;;
2712;SDS011;1366;47.988;7.856;2023-03-15T05:55:15;4.10;;;3.47;;
2712;SDS011;1366;47.988;7.856;2023-03-15T05:57:41;3.70;;;2.97;;
2712;SDS011;1366;47.988;7.856;2023-03-15T06:00:08;2.30;;;2.20;;
2712;SDS011;1366;47.988;7.856;2023-03-15T06:02:34;3.00;;;2.70;;
2712;SDS011;1366;47.988;7.856;2023-03-15T06:05:00;2.73;;;2.53;;
2712;SDS011;1366;47.988;7.856;2023-03-15T06:07:26;2.80;;;2.60;;
2712;SDS011;1366;47.988;7.856;2023-03-15T06:09:52;3.50;;;2.50;;
2712;SDS011;1366;47.988;7.856;2023-03-15T06:12:18;2.73;;;2.50;;
2712;SDS011;1366;47.988;7.856;2023-03-15T06:14:44;3.13;;;2.90;;
2712;SDS011;1366;47.988;7.856;2023-03-15T06:17:10;3.50;;;2.87;;
2712;SDS011;1366;47.988;7.856;2023-03-15T06:19:36;4.90;;;2.70;;
2712;SDS011;1366;47.988;7.856;2023-03-15T06:22:02;2.60;;;2.40;;
2712;SDS011;1366;47.988;7.856;2023-03-15T06:24:28;4.50;;;3.07;;
2712;SDS011;1366;47.988;7.856;2023-03-15T06:26:54;3.17;;;2.80;;
2712;SDS011;1366;47.988;7.856;2023-03-15T06:29:21;3.17;;;2.60;;
2712;SDS011;1366;47.988;7.856;2023-03-15T06:31:47;2.93;;;2.73;;
2712;SDS011;1366;47.988;7.856;2023-03-15T06:34:13;3.00;;;2.70;;
2712;SDS011;1366;47.988;7.856;2023-03-15T06:36:40;3.00;;;2.80;;
2712;SDS011;1366;47.988;7.856;2023-03-15T06:39:09;3.40;;;3.10;;
2712;SDS011;1366;47.988;7.856;2023-03-15T06:41:36;3.77;;;2.90;;
2712;SDS011;1366;47.988;7.856;2023-03-15T06:44:02;3.60;;;3.00;;
2712;SDS011;1366;47.988;7.856;2023-03-15T06:46:28;3.97;;;3.67;;
2712;SDS011;1366;47.988;7.856;2023-03-15T06:48:54;3.23;;;3.00;;
2712;SDS011;1366;47.988;7.856;2023-03-15T06:51:20;3.47;;;3.17;;
2712;SDS011;1366;47.988;7.856;2023-03-15T06:53:46;3.30;;;3.10;;
2712;SDS011;1366;47.988;7.856;2023-03-15T06:56:12;3.27;;;3.07;;
2712;SDS011;1366;47.988;7.856;2023-03-15T06:58:38;3.60;;;3.30;;
2712;SDS011;1366;47.988;7.856;2023-03-15T07:01:04;6.07;;;3.17;;
2712;SDS011;1366;47.988;7.856;2023-03-15T07:03:30;3.73;;;3.43;;
2712;SDS011;1366;47.988;7.856;2023-03-15T07:05:57;5.07;;;3.97;;
2712;SDS011;1366;47.988;7.856;2023-03-15T07:08:23;3.70;;;3.30;;
2712;SDS011;1366;47.988;7.856;2023-03-15T07:10:50;4.50;;;3.20;;
2712;SDS011;1366;47.988;7.856;2023-03-15T07:13:16;4.03;;;3.40;;
2712;SDS011;1366;47.988;7.856;2023-03-15T07:15:43;3.60;;;2.97;;
2712;SDS011;1366;47.988;7.856;2023-03-15T07:18:09;4.17;;;3.83;;
2712;SDS011;1366;47.988;7.856;2023-03-15T07:20:35;3.60;;;3.40;;
2712;SDS011;1366;47.988;7.856;2023-03-15T07:23:01;3.43;;;3.13;;
2712;SDS011;1366;47.988;7.856;2023-03-15T07:25:27;6.03;;;3.37;;
2712;SDS011;1366;47.988;7.856;2023-03-15T07:27:53;3.03;;;2.77;;
2712;SDS011;1366;47.988;7.856;2023-03-15T07:30:19;4.30;;;3.20;;
2712;SDS011;1366;47.988;7.856;2023-03-15T07:32:45;3.80;;;3.20;;
2712;SDS011;1366;47.988;7.856;2023-03-15T07:35:12;3.73;;;3.03;;
2712;SDS011;1366;47.988;7.856;2023-03-15T07:37:38;3.50;;;2.83;;
2712;SDS011;1366;47.988;7.856;2023-03-15T07:40:05;4.97;;;2.93;;
2712;SDS011;1366;47.988;7.856;2023-03-15T07:42:34;4.63;;;3.70;;
2712;SDS011;1366;47.988;7.856;2023-03-15T07:45:01;3.53;;;3.00;;
2712;SDS011;1366;47.988;7.856;2023-03-15T07:47:27;4.37;;;3.27;;
2712;SDS011;1366;47.988;7.856;2023-03-15T07:49:53;2.60;;;2.40;;
2712;SDS011;1366;47.988;7.856;2023-03-15T07:52:19;4.07;;;3.50;;
2712;SDS011;1366;47.988;7.856;2023-03-15T07:54:45;4.50;;;3.30;;
2712;SDS011;1366;47.988;7.856;2023-03-15T07:57:11;3.53;;;3.23;;
2712;SDS011;1366;47.988;7.856;2023-03-15T07:59:38;4.97;;;3.60;;
2712;SDS011;1366;47.988;7.856;2023-03-15T08:02:04;4.37;;;3.27;;
2712;SDS011;1366;47.988;7.856;2023-03-15T08:04:30;4.40;;;3.40;;
2712;SDS011;1366;47.988;7.856;2023-03-15T08:06:56;3.37;;;2.97;;
2712;SDS011;1366;47.988;7.856;2023-03-15T08:09:22;3.40;;;2.37;;
2712;SDS011;1366;47.988;7.856;2023-03-15T08:11:48;2.93;;;2.47;;
2712;SDS011;1366;47.988;7.856;2023-03-15T08:14:15;3.57;;;2.70;;
2712;SDS011;1366;47.988;7.856;2023-03-15T08:16:41;3.50;;;3.10;;
2712;SDS011;1366;47.988;7.856;2023-03-15T08:19:07;3.67;;;3.10;;
2712;SDS011;1366;47.988;7.856;2023-03-15T08:21:33;4.43;;;2.77;;
2712;SDS011;1366;47.988;7.856;2023-03-15T08:23:59;3.30;;;3.00;;
2712;SDS011;1366;47.988;7.856;2023-03-15T08:26:25;4.37;;;3.17;;
2712;SDS011;1366;47.988;7.856;2023-03-15T08:28:51;2.70;;;2.50;;
2712;SDS011;1366;47.988;7.856;2023-03-15T08:31:17;2.70;;;2.50;;
2712;SDS011;1366;47.988;7.856;2023-03-15T08:33:43;4.50;;;2.60;;
2712;SDS011;1366;47.988;7.856;2023-03-15T08:36:09;5.23;;;2.27;;
2712;SDS011;1366;47.988;7.856;2023-03-15T08:38:35;2.10;;;2.00;;
2712;SDS011;1366;47.988;7.856;2023-03-15T08:41:02;2.40;;;2.20;;
2712;SDS011;1366;47.988;7.856;2023-03-15T08:43:28;2.47;;;2.27;;
2712;SDS011;1366;47.988;7.856;2023-03-15T08:45:54;3.10;;;1.97;;
2712;SDS011;1366;47.988;7.856;2023-03-15T08:48:20;2.00;;;1.90;;
2712;SDS011;1366;47.988;7.856;2023-03-15T08:50:46;2.60;;;1.93;;
2712;SDS011;1366;47.988;7.856;2023-03-15T08:53:12;2.03;;;1.80;;
2712;SDS011;1366;47.988;7.856;2023-03-15T08:55:38;1.90;;;1.60;;
2712;SDS011;1366;47.988;7.856;2023-03-15T08:58:04;1.43;;;1.33;;
2712;SDS011;1366;47.988;7.856;2023-03-15T09:00:30;1.50;;;1.40;;
2712;SDS011;1366;47.988;7.856;2023-03-15T09:02:56;1.63;;;1.50;;
2712;SDS011;1366;47.988;7.856;2023-03-15T09:05:23;1.40;;;1.30;;
2712;SDS011;1366;47.988;7.856;2023-03-15T09:07:50;2.50;;;1.53;;
2712;SDS011;1366;47.988;7.856;2023-03-15T09:10:17;2.50;;;1.40;;
2712;SDS011;1366;47.988;7.856;2023-03-15T09:12:44;1.60;;;1.50;;
2712;SDS011;1366;47.988;7.856;2023-03-15T09:15:11;3.27;;;1.53;;
2712;SDS011;1366;47.988;7.856;2023-03-15T09:17:38;1.10;;;1.10;;
2712;SDS011;1366;47.988;7.856;2023-03-15T09:20:04;1.63;;;1.43;;
2712;SDS011;1366;47.988;7.856;2023-03-15T09:22:38;1.30;;;1.20;;
2712;SDS011;1366;47.988;7.856;2023-03-15T09:25:04;1.60;;;1.50;;
2712;SDS011;1366;47.988;7.856;2023-03-15T09:27:30;2.23;;;1.30;;
2712;SDS011;1366;47.988;7.856;2023-03-15T09:29:57;1.40;;;1.30;;
2712;SDS011;1366;47.988;7.856;2023-03-15T09:32:23;1.50;;;1.27;;
2712;SDS011;1366;47.988;7.856;2023-03-15T09:34:49;1.20;;;1.10;;
2712;SDS011;1366;47.988;7.856;2023-03-15T09:37:15;2.10;;;1.40;;
2712;SDS011;1366;47.988;7.856;2023-03-15T09:39:41;1.70;;;1.33;;
2712;SDS011;1366;47.988;7.856;2023-03-15T09:42:33;1.30;;;1.20;;
2712;SDS011;1366;47.988;7.856;2023-03-15T09:45:05;1.00;;;1.00;;
2712;SDS011;1366;47.988;7.856;2023-03-15T09:47:36;0.90;;;0.90;;
2712;SDS011;1366;47.988;7.856;2023-03-15T09:55:42;2.47;;;1.10;;
2712;SDS011;1366;47.988;7.856;2023-03-15T09:58:10;1.20;;;1.00;;
2712;SDS011;1366;47.988;7.856;2023-03-15T10:00:44;4.07;;;1.47;;
2712;SDS011;1366;47.988;7.856;2023-03-15T10:03:26;1.07;;;1.00;;
2712;SDS011;1366;47.988;7.856;2023-03-15T10:05:58;1.43;;;1.10;;
2712;SDS011;1366;47.988;7.856;2023-03-15T10:08:26;1.50;;;1.17;;
2712;SDS011;1366;47.988;7.856;2023-03-15T10:10:53;1.03;;;1.00;;
2712;SDS011;1366;47.988;7.856;2023-03-15T10:16:26;1.20;;;1.10;;
2712;SDS011;1366;47.988;7.856;2023-03-15T10:21:35;1.27;;;1.07;;
2712;SDS011;1366;47.988;7.856;2023-03-15T10:24:01;1.50;;;1.40;;
2712;SDS011;1366;47.988;7.856;2023-03-15T10:26:30;1.97;;;1.50;;
2712;SDS011;1366;47.988;7.856;2023-03-15T10:28:58;2.07;;;1.60;;
2712;SDS011;1366;47.988;7.856;2023-03-15T10:31:26;1.20;;;1.17;;
2712;SDS011;1366;47.988;7.856;2023-03-15T10:33:56;3.03;;;2.17;;
2712;SDS011;1366;47.988;7.856;2023-03-15T10:36:23;1.60;;;1.50;;
2712;SDS011;1366;47.988;7.856;2023-03-15T10:38:49;1.70;;;1.60;;
2712;SDS011;1366;47.988;7.856;2023-03-15T10:43:55;1.97;;;1.87;;
2712;SDS011;1366;47.988;7.856;2023-03-15T10:46:22;1.80;;;1.70;;
2712;SDS011;1366;47.988;7.856;2023-03-15T10:48:58;1.63;;;1.50;;
2712;SDS011;1366;47.988;7.856;2023-03-15T10:51:26;1.93;;;1.60;;
2712;SDS011;1366;47.988;7.856;2023-03-15T10:59:26;1.57;;;1.43;;
2712;SDS011;1366;47.988;7.856;2023-03-15T11:01:53;1.50;;;1.40;;
2712;SDS011;1366;47.988;7.856;2023-03-15T11:04:32;2.40;;;1.43;;
2712;SDS011;1366;47.988;7.856;2023-03-15T11:06:59;1.40;;;1.30;;
2712;SDS011;1366;47.988;7.856;2023-03-15T11:09:36;1.40;;;1.30;;
2712;SDS011;1366;47.988;7.856;2023-03-15T11:12:03;1.70;;;1.40;;
2712;SDS011;1366;47.988;7.856;2023-03-15T11:14:37;1.40;;;1.30;;
2712;SDS011;1366;47.988;7.856;2023-03-15T11:17:05;2.60;;;1.70;;
2712;SDS011;1366;47.988;7.856;2023-03-15T11:19:33;2.00;;;1.87;;
2712;SDS011;1366;47.988;7.856;2023-03-15T11:22:01;1.60;;;1.50;;
2712;SDS011;1366;47.988;7.856;2023-03-15T11:24:28;1.37;;;1.33;;
2712;SDS011;1366;47.988;7.856;2023-03-15T11:26:56;1.50;;;1.40;;
2712;SDS011;1366;47.988;7.856;2023-03-15T11:29:34;1.40;;;1.30;;
2712;SDS011;1366;47.988;7.856;2023-03-15T11:32:02;1.50;;;1.40;;
2712;SDS011;1366;47.988;7.856;2023-03-15T11:34:45;1.77;;;1.67;;
2712;SDS011;1366;47.988;7.856;2023-03-15T11:37:13;1.73;;;1.63;;
2712;SDS011;1366;47.988;7.856;2023-03-15T11:39:44;1.50;;;1.40;;
2712;SDS011;1366;47.988;7.856;2023-03-15T11:42:34;1.73;;;1.53;;
2712;SDS011;1366;47.988;7.856;2023-03-15T11:45:05;2.03;;;1.40;;
2712;SDS011;1366;47.988;7.856;2023-03-15T11:47:56;1.33;;;1.23;;
2712;SDS011;1366;47.988;7.856;2023-03-15T11:50:23;1.40;;;1.30;;
2712;SDS011;1366;47.988;7.856;2023-03-15T11:52:49;2.00;;;1.70;;
2712;SDS011;1366;47.988;7.856;2023-03-15T11:55:26;1.70;;;1.60;;
2712;SDS011;1366;47.988;7.856;2023-03-15T11:57:53;1.50;;;1.40;;
2712;SDS011;1366;47.988;7.856;2023-03-15T12:02:56;1.40;;;1.30;;
2712;SDS011;1366;47.988;7.856;2023-03-15T12:10:51;1.40;;;1.30;;
2712;SDS011;1366;47.988;7.856;2023-03-15T12:13:18;1.83;;;1.50;;
2712;SDS011;1366;47.988;7.856;2023-03-15T12:15:45;1.50;;;1.37;;
2712;SDS011;1366;47.988;7.856;2023-03-15T12:18:12;1.47;;;1.37;;
2712;SDS011;1366;47.988;7.856;2023-03-15T12:20:48;1.60;;;1.50;;
2712;SDS011;1366;47.988;7.856;2023-03-15T12:28:20;1.57;;;1.47;;
2712;SDS011;1366;47.988;7.856;2023-03-15T12:30:51;1.80;;;1.70;;
2712;SDS011;1366;47.988;7.856;2023-03-15T12:33:18;1.97;;;1.60;;
2712;SDS011;1366;47.988;7.856;2023-03-15T12:35:45;1.40;;;1.30;;
2712;SDS011;1366;47.988;7.856;2023-03-15T12:38:14;1.30;;;1.20;;
2712;SDS011;1366;47.988;7.856;2023-03-15T12:40:53;1.53;;;1.40;;
2712;SDS011;1366;47.988;7.856;2023-03-15T12:46:05;1.57;;;1.47;;
2712;SDS011;1366;47.988;7.856;2023-03-15T12:48:32;1.27;;;1.23;;
2712;SDS011;1366;47.988;7.856;2023-03-15T12:50:59;1.60;;;1.50;;
2712;SDS011;1366;47.988;7.856;2023-03-15T12:56:36;4.30;;;1.23;;
2712;SDS011;1366;47.988;7.856;2023-03-15T12:59:02;1.60;;;1.50;;
2712;SDS011;1366;47.988;7.856;2023-03-15T13:01:30;1.50;;;1.40;;
2712;SDS011;1366;47.988;7.856;2023-03-15T13:03:57;1.93;;;1.30;;
2712;SDS011;1366;47.988;7.856;2023-03-15T13:06:31;1.33;;;1.17;;
2712;SDS011;1366;47.988;7.856;2023-03-15T13:11:50;1.50;;;1.40;;
2712;SDS011;1366;47.988;7.856;2023-03-15T13:14:36;1.40;;;1.30;;
2712;SDS011;1366;47.988;7.856;2023-03-15T13:19:42;1.70;;;1.30;;
2712;SDS011;1366;47.988;7.856;2023-03-15T13:30:00;1.50;;;1.40;;
2712;SDS011;1366;47.988;7.856;2023-03-15T13:32:26;1.50;;;1.40;;
2712;SDS011;1366;47.988;7.856;2023-03-15T13:34:52;1.40;;;1.27;;
2712;SDS011;1366;47.988;7.856;2023-03-15T13:37:24;2.10;;;1.60;;
2712;SDS011;1366;47.988;7.856;2023-03-15T13:40:01;2.33;;;1.90;;
2712;SDS011;1366;47.988;7.856;2023-03-15T13:42:27;1.63;;;1.53;;
2712;SDS011;1366;47.988;7.856;2023-03-15T13:47:29;1.50;;;1.40;;
2712;SDS011;1366;47.988;7.856;2023-03-15T13:49:55;1.40;;;1.30;;
2712;SDS011;1366;47.988;7.856;2023-03-15T13:52:21;1.20;;;1.10;;
2712;SDS011;1366;47.988;7.856;2023-03-15T13:54:47;1.40;;;1.30;;
2712;SDS011;1366;47.988;7.856;2023-03-15T13:57:17;1.27;;;1.20;;
2712;SDS011;1366;47.988;7.856;2023-03-15T13:59:57;1.50;;;1.23;;
2712;SDS011;1366;47.988;7.856;2023-03-15T14:02:31;1.40;;;1.30;;
2712;SDS011;1366;47.988;7.856;2023-03-15T14:05:09;1.63;;;1.40;;
2712;SDS011;1366;47.988;7.856;2023-03-15T14:07:36;2.63;;;1.57;;
2712;SDS011;1366;47.988;7.856;2023-03-15T14:12:42;1.50;;;1.30;;
2712;SDS011;1366;47.988;7.856;2023-03-15T14:15:54;1.30;;;1.20;;
2712;SDS011;1366;47.988;7.856;2023-03-15T14:20:26;1.73;;;1.10;;
2712;SDS011;1366;47.988;7.856;2023-03-15T14:22:55;1.43;;;1.33;;
2712;SDS011;1366;47.988;7.856;2023-03-15T14:25:22;1.50;;;1.40;;
2712;SDS011;1366;47.988;7.856;2023-03-15T14:27:48;1.67;;;1.57;;
2712;SDS011;1366;47.988;7.856;2023-03-15T14:30:21;2.47;;;1.43;;
2712;SDS011;1366;47.988;7.856;2023-03-15T14:32:52;1.57;;;1.30;;
2712;SDS011;1366;47.988;7.856;2023-03-15T14:36:02;1.33;;;1.23;;
2712;SDS011;1366;47.988;7.856;2023-03-15T14:38:23;1.50;;;1.37;;
2712;SDS011;1366;47.988;7.856;2023-03-15T14:40:49;1.40;;;1.30;;
2712;SDS011;1366;47.988;7.856;2023-03-15T14:43:16;1.50;;;1.40;;
2712;SDS011;1366;47.988;7.856;2023-03-15T14:45:43;1.47;;;1.37;;
2712;SDS011;1366;47.988;7.856;2023-03-15T14:48:11;1.60;;;1.47;;
2712;SDS011;1366;47.988;7.856;2023-03-15T14:50:38;1.60;;;1.50;;
2712;SDS011;1366;47.988;7.856;2023-03-15T14:53:05;1.30;;;1.20;;
2712;SDS011;1366;47.988;7.856;2023-03-15T14:55:33;1.40;;;1.30;;
2712;SDS011;1366;47.988;7.856;2023-03-15T14:58:00;1.20;;;1.20;;
2712;SDS011;1366;47.988;7.856;2023-03-15T15:00:26;1.20;;;1.10;;
2712;SDS011;1366;47.988;7.856;2023-03-15T15:02:53;1.23;;;1.13;;
2712;SDS011;1366;47.988;7.856;2023-03-15T15:05:27;1.30;;;1.20;;
2712;SDS011;1366;47.988;7.856;2023-03-15T15:07:57;1.10;;;1.10;;
2712;SDS011;1366;47.988;7.856;2023-03-15T15:10:25;1.40;;;1.10;;
2712;SDS011;1366;47.988;7.856;2023-03-15T15:12:51;1.37;;;1.17;;
2712;SDS011;1366;47.988;7.856;2023-03-15T15:15:18;2.47;;;1.17;;
2712;SDS011;1366;47.988;7.856;2023-03-15T15:17:45;1.20;;;1.10;;
2712;SDS011;1366;47.988;7.856;2023-03-15T15:20:11;1.00;;;0.97;;
2712;SDS011;1366;47.988;7.856;2023-03-15T15:22:39;1.67;;;1.53;;
2712;SDS011;1366;47.988;7.856;2023-03-15T15:25:16;1.33;;;1.23;;
2712;SDS011;1366;47.988;7.856;2023-03-15T15:27:42;0.93;;;0.93;;
2712;SDS011;1366;47.988;7.856;2023-03-15T15:30:10;1.13;;;1.13;;
2712;SDS011;1366;47.988;7.856;2023-03-15T15:32:36;1.43;;;1.20;;
2712;SDS011;1366;47.988;7.856;2023-03-15T15:35:02;1.20;;;1.10;;
2712;SDS011;1366;47.988;7.856;2023-03-15T15:37:28;1.37;;;1.10;;
2712;SDS011;1366;47.988;7.856;2023-03-15T15:39:55;1.40;;;1.30;;
2712;SDS011;1366;47.988;7.856;2023-03-15T15:42:21;1.07;;;1.00;;
2712;SDS011;1366;47.988;7.856;2023-03-15T15:44:47;1.40;;;1.30;;
2712;SDS011;1366;47.988;7.856;2023-03-15T15:47:13;1.20;;;1.10;;
2712;SDS011;1366;47.988;7.856;2023-03-15T15:49:39;1.10;;;1.00;;
2712;SDS011;1366;47.988;7.856;2023-03-15T15:52:07;1.30;;;1.20;;
2712;SDS011;1366;47.988;7.856;2023-03-15T15:54:33;1.03;;;1.00;;
2712;SDS011;1366;47.988;7.856;2023-03-15T15:57:00;1.80;;;1.20;;
2712;SDS011;1366;47.988;7.856;2023-03-15T15:59:26;1.43;;;1.27;;
2712;SDS011;1366;47.988;7.856;2023-03-15T16:01:54;1.07;;;1.07;;
2712;SDS011;1366;47.988;7.856;2023-03-15T16:04:20;1.10;;;1.10;;
2712;SDS011;1366;47.988;7.856;2023-03-15T16:06:51;1.40;;;1.13;;
2712;SDS011;1366;47.988;7.856;2023-03-15T16:09:17;1.60;;;1.50;;
2712;SDS011;1366;47.988;7.856;2023-03-15T16:11:43;1.33;;;1.23;;
2712;SDS011;1366;47.988;7.856;2023-03-15T16:14:10;2.37;;;1.30;;
2712;SDS011;1366;47.988;7.856;2023-03-15T16:16:37;1.33;;;1.33;;
2712;SDS011;1366;47.988;7.856;2023-03-15T16:19:03;1.27;;;1.10;;
2712;SDS011;1366;47.988;7.856;2023-03-15T16:21:33;1.23;;;1.10;;
2712;SDS011;1366;47.988;7.856;2023-03-15T16:24:06;1.40;;;1.10;;
2712;SDS011;1366;47.988;7.856;2023-03-15T16:26:35;1.30;;;1.20;;
2712;SDS011;1366;47.988;7.856;2023-03-15T16:29:01;2.10;;;1.30;;
2712;SDS011;1366;47.988;7.856;2023-03-15T16:31:27;1.50;;;1.40;;
2712;SDS011;1366;47.988;7.856;2023-03-15T16:33:53;1.50;;;1.40;;
2712;SDS011;1366;47.988;7.856;2023-03-15T16:36:20;2.80;;;1.60;;
2712;SDS011;1366;47.988;7.856;2023-03-15T16:38:47;1.67;;;1.57;;
2712;SDS011;1366;47.988;7.856;2023-03-15T16:41:14;1.93;;;1.70;;
2712;SDS011;1366;47.988;7.856;2023-03-15T16:43:40;1.77;;;1.67;;
2712;SDS011;1366;47.988;7.856;2023-03-15T16:46:13;1.70;;;1.60;;
2712;SDS011;1366;47.988;7.856;2023-03-15T16:48:40;1.77;;;1.50;;
2712;SDS011;1366;47.988;7.856;2023-03-15T16:51:06;1.57;;;1.47;;
2712;SDS011;1366;47.988;7.856;2023-03-15T16:53:33;1.67;;;1.57;;
2712;SDS011;1366;47.988;7.856;2023-03-15T16:56:01;1.60;;;1.50;;
2712;SDS011;1366;47.988;7.856;2023-03-15T16:58:29;1.87;;;1.63;;
2712;SDS011;1366;47.988;7.856;2023-03-15T17:00:56;1.50;;;1.40;;
2712;SDS011;1366;47.988;7.856;2023-03-15T17:03:22;1.50;;;1.40;;
2712;SDS011;1366;47.988;7.856;2023-03-15T17:05:49;1.70;;;1.60;;
2712;SDS011;1366;47.988;7.856;2023-03-15T17:08:17;1.60;;;1.50;;
2712;SDS011;1366;47.988;7.856;2023-03-15T17:10:44;1.70;;;1.53;;
2712;SDS011;1366;47.988;7.856;2023-03-15T17:13:12;1.83;;;1.73;;
2712;SDS011;1366;47.988;7.856;2023-03-15T17:15:39;1.80;;;1.70;;
2712;SDS011;1366;47.988;7.856;2023-03-15T17:18:08;2.90;;;1.90;;
2712;SDS011;1366;47.988;7.856;2023-03-15T17:20:38;2.60;;;1.80;;
2712;SDS011;1366;47.988;7.856;2023-03-15T17:23:05;1.63;;;1.53;;
2712;SDS011;1366;47.988;7.856;2023-03-15T17:25:31;2.90;;;2.00;;
2712;SDS011;1366;47.988;7.856;2023-03-15T17:27:57;2.07;;;1.90;;
2712;SDS011;1366;47.988;7.856;2023-03-15T17:30:29;1.63;;;1.53;;
2712;SDS011;1366;47.988;7.856;2023-03-15T17:32:55;2.00;;;1.80;;
2712;SDS011;1366;47.988;7.856;2023-03-15T17:35:26;2.33;;;1.40;;
2712;SDS011;1366;47.988;7.856;2023-03-15T17:37:53;2.00;;;1.50;;
2712;SDS011;1366;47.988;7.856;2023-03-15T17:40:21;1.77;;;1.60;;
2712;SDS011;1366;47.988;7.856;2023-03-15T17:42:47;1.73;;;1.63;;
2712;SDS011;1366;47.988;7.856;2023-03-15T17:45:14;1.90;;;1.70;;
2712;SDS011;1366;47.988;7.856;2023-03-15T17:47:41;2.10;;;1.90;;
2712;SDS011;1366;47.988;7.856;2023-03-15T17:50:07;1.40;;;1.30;;
2712;SDS011;1366;47.988;7.856;2023-03-15T17:52:33;1.50;;;1.40;;
2712;SDS011;1366;47.988;7.856;2023-03-15T17:54:59;1.60;;;1.50;;
2712;SDS011;1366;47.988;7.856;2023-03-15T17:57:25;1.70;;;1.60;;
2712;SDS011;1366;47.988;7.856;2023-03-15T17:59:51;1.80;;;1.70;;
2712;SDS011;1366;47.988;7.856;2023-03-15T18:02:18;2.13;;;2.03;;
2712;SDS011;1366;47.988;7.856;2023-03-15T18:04:45;2.67;;;2.00;;
2712;SDS011;1366;47.988;7.856;2023-03-15T18:07:11;2.20;;;2.00;;
2712;SDS011;1366;47.988;7.856;2023-03-15T18:09:37;1.80;;;1.70;;
2712;SDS011;1366;47.988;7.856;2023-03-15T18:12:04;2.03;;;1.93;;
2712;SDS011;1366;47.988;7.856;2023-03-15T18:14:31;2.33;;;2.13;;
2712;SDS011;1366;47.988;7.856;2023-03-15T18:17:01;2.33;;;2.13;;
2712;SDS011;1366;47.988;7.856;2023-03-15T18:19:27;3.80;;;2.40;;
2712;SDS011;1366;47.988;7.856;2023-03-15T18:21:53;2.50;;;2.30;;
2712;SDS011;1366;47.988;7.856;2023-03-15T18:24:19;2.53;;;2.07;;
2712;SDS011;1366;47.988;7.856;2023-03-15T18:26:45;2.20;;;2.10;;
2712;SDS011;1366;47.988;7.856;2023-03-15T18:29:11;3.13;;;2.87;;
2712;SDS011;1366;47.988;7.856;2023-03-15T18:31:37;4.43;;;2.80;;
2712;SDS011;1366;47.988;7.856;2023-03-15T18:34:04;3.93;;;2.90;;
2712;SDS011;1366;47.988;7.856;2023-03-15T18:36:30;2.50;;;2.30;;
2712;SDS011;1366;47.988;7.856;2023-03-15T18:38:56;3.60;;;2.80;;
2712;SDS011;1366;47.988;7.856;2023-03-15T18:41:23;2.60;;;2.40;;
2712;SDS011;1366;47.988;7.856;2023-03-15T18:43:49;2.27;;;2.17;;
2712;SDS011;1366;47.988;7.856;2023-03-15T18:46:17;3.10;;;2.90;;
2712;SDS011;1366;47.988;7.856;2023-03-15T18:48:44;2.83;;;2.37;;
2712;SDS011;1366;47.988;7.856;2023-03-15T18:51:11;2.90;;;2.70;;
2712;SDS011;1366;47.988;7.856;2023-03-15T18:53:37;3.90;;;3.10;;
2712;SDS011;1366;47.988;7.856;2023-03-15T18:56:04;3.10;;;2.77;;
2712;SDS011;1366;47.988;7.856;2023-03-15T18:58:30;3.00;;;2.70;;
2712;SDS011;1366;47.988;7.856;2023-03-15T19:00:56;3.30;;;3.00;;
2712;SDS011;1366;47.988;7.856;2023-03-15T19:03:22;3.00;;;2.80;;
2712;SDS011;1366;47.988;7.856;2023-03-15T19:05:48;3.77;;;3.33;;
2712;SDS011;1366;47.988;7.856;2023-03-15T19:08:14;3.30;;;3.10;;
2712;SDS011;1366;47.988;7.856;2023-03-15T19:10:40;3.50;;;3.20;;
2712;SDS011;1366;47.988;7.856;2023-03-15T19:13:08;3.67;;;3.30;;
2712;SDS011;1366;47.988;7.856;2023-03-15T19:15:34;4.50;;;2.90;;
2712;SDS011;1366;47.988;7.856;2023-03-15T19:18:00;3.63;;;3.33;;
2712;SDS011;1366;47.988;7.856;2023-03-15T19:20:26;4.17;;;3.17;;
2712;SDS011;1366;47.988;7.856;2023-03-15T19:22:52;3.00;;;2.80;;
2712;SDS011;1366;47.988;7.856;2023-03-15T19:25:18;3.17;;;2.97;;
2712;SDS011;1366;47.988;7.856;2023-03-15T19:27:45;3.27;;;2.93;;
2712;SDS011;1366;47.988;7.856;2023-03-15T19:30:12;3.10;;;2.90;;
2712;SDS011;1366;47.988;7.856;2023-03-15T19:32:41;3.40;;;3.10;;
2712;SDS011;1366;47.988;7.856;2023-03-15T19:35:07;2.93;;;2.73;;
2712;SDS011;1366;47.988;7.856;2023-03-15T19:37:34;3.70;;;2.50;;
2712;SDS011;1366;47.988;7.856;2023-03-15T19:40:00;3.23;;;2.80;;
2712;SDS011;1366;47.988;7.856;2023-03-15T19:42:26;2.90;;;2.70;;
2712;SDS011;1366;47.988;7.856;2023-03-15T19:44:52;2.73;;;2.60;;
2712;SDS011;1366;47.988;7.856;2023-03-15T19:47:18;3.43;;;3.03;;
2712;SDS011;1366;47.988;7.856;2023-03-15T19:49:44;3.20;;;2.90;;
2712;SDS011;1366;47.988;7.856;2023-03-15T19:52:10;3.50;;;3.10;;
2712;SDS011;1366;47.988;7.856;2023-03-15T19:54:39;3.27;;;3.00;;
2712;SDS011;1366;47.988;7.856;2023-03-15T19:57:05;3.67;;;2.80;;
2712;SDS011;1366;47.988;7.856;2023-03-15T19:59:31;3.30;;;3.10;;
2712;SDS011;1366;47.988;7.856;2023-03-15T20:02:03;3.43;;;3.13;;
2712;SDS011;1366;47.988;7.856;2023-03-15T20:04:29;2.90;;;2.70;;
2712;SDS011;1366;47.988;7.856;2023-03-15T20:06:55;3.13;;;2.93;;
2712;SDS011;1366;47.988;7.856;2023-03-15T20:09:21;3.87;;;3.03;;
2712;SDS011;1366;47.988;7.856;2023-03-15T20:11:47;2.73;;;2.57;;
2712;SDS011;1366;47.988;7.856;2023-03-15T20:14:13;4.33;;;3.93;;
2712;SDS011;1366;47.988;7.856;2023-03-15T20:16:40;3.27;;;3.07;;
2712;SDS011;1366;47.988;7.856;2023-03-15T20:19:06;3.50;;;3.20;;
2712;SDS011;1366;47.988;7.856;2023-03-15T20:21:32;3.37;;;3.13;;
2712;SDS011;1366;47.988;7.856;2023-03-15T20:23:58;3.77;;;3.37;;
2712;SDS011;1366;47.988;7.856;2023-03-15T20:26:24;3.43;;;3.03;;
2712;SDS011;1366;47.988;7.856;2023-03-15T20:28:50;3.83;;;3.33;;
2712;SDS011;1366;47.988;7.856;2023-03-15T20:31:17;4.13;;;3.53;;
2712;SDS011;1366;47.988;7.856;2023-03-15T20:33:43;3.77;;;3.47;;
2712;SDS011;1366;47.988;7.856;2023-03-15T20:36:12;3.80;;;3.60;;
2712;SDS011;1366;47.988;7.856;2023-03-15T20:38:38;4.13;;;3.70;;
2712;SDS011;1366;47.988;7.856;2023-03-15T20:41:05;4.20;;;3.80;;
2712;SDS011;1366;47.988;7.856;2023-03-15T20:43:31;4.67;;;4.17;;
2712;SDS011;1366;47.988;7.856;2023-03-15T20:45:58;4.00;;;3.33;;
2712;SDS011;1366;47.988;7.856;2023-03-15T20:48:25;3.73;;;3.43;;
2712;SDS011;1366;47.988;7.856;2023-03-15T20:50:53;4.23;;;3.87;;
2712;SDS011;1366;47.988;7.856;2023-03-15T20:53:19;3.40;;;3.20;;
2712;SDS011;1366;47.988;7.856;2023-03-15T20:55:45;4.43;;;4.03;;
2712;SDS011;1366;47.988;7.856;2023-03-15T20:58:11;4.33;;;3.93;;
2712;SDS011;1366;47.988;7.856;2023-03-15T21:00:37;5.23;;;4.73;;
2712;SDS011;1366;47.988;7.856;2023-03-15T21:03:05;3.80;;;3.60;;
2712;SDS011;1366;47.988;7.856;2023-03-15T21:05:31;3.67;;;3.37;;
2712;SDS011;1366;47.988;7.856;2023-03-15T21:07:58;4.07;;;3.67;;
2712;SDS011;1366;47.988;7.856;2023-03-15T21:10:24;3.57;;;3.27;;
2712;SDS011;1366;47.988;7.856;2023-03-15T21:12:50;3.40;;;3.10;;
2712;SDS011;1366;47.988;7.856;2023-03-15T21:15:16;3.23;;;3.03;;
2712;SDS011;1366;47.988;7.856;2023-03-15T21:17:45;3.90;;;3.60;;